Mariano I. Loza, Argentina
Current Conditions -  °F | °C
As of 3:00 AM on Saturday 20 Dec 2014 (Local Time) from SARL Reporting Station
Clear Clear  
Wind Chill: 68°   Ceiling: Unl
Heat Index: 68°   Visibility: 6mi
Dew Point: 66°   Wind: 0mph
Humidity: 94%   Direction: NA
Pressure: 29.62"   Gusts: NA
Location:  29.37°S, 58.2°W
Report Text: SARL 200600Z 00000KT CAVOK 20/19 Q1003
Loading
Personal Weather Stations






























Interactive Weather Map New forecast layout! Learn more

10-Day Weather Forecast

Advertisements
Track Severe Weather on mobile